Station: Wangaratta  

  Atmospheric Gas Attenuation - ITU Rec 676-11   ----------------- dB/100km -----------------
Date Time Temp RH % AH g/m3 Dew Point Wind Direction Speed kph Gust kph Barometer mB Rainfall Since 9am 24GHz 47GHz 76GHz 122GHz 134GHz 241GHz
08/05 12:30 16.5 62 8.71 9.2 30 41 1021.7 0 19.7 25.6 39.3 102.9 97.1 334.3
08/05 12:20 16 60 8.17 8.2 30 35 1021.9 0 18.6 24.9 37.4 98.0 90.9 312.2
08/05 12:10 16.3 59 8.19 8.3 33 41 1021.8 0 18.6 24.9 37.4 97.8 90.8 311.9
08/05 12:00 17 63 9.12 9.9 28 41 1021.8 0 20.5 26.1 40.6 106.6 101.8 350.7
08/05 11:50 16 67 9.13 9.9 24 28 1021.8 0 20.6 26.4 41.2 108.1 103.2 355.6
08/05 11:40 16.2 68 9.38 10.3 28 32 1022 0 21.1 26.8 42.1 110.5 106.3 366.3
08/05 11:30 15.7 67 8.96 9.6 24 33 1021.9 0 20.3 26.2 40.7 106.7 101.4 349.2
08/05 11:20 15.4 71 9.33 10.2 22 26 1022 0 21.1 26.9 42.3 111.1 106.7 367.7
08/05 11:10 15 71 9.1 9.8 22 26 1022 0 20.6 26.7 41.6 109.1 104.2 358.8
08/05 11:00 14.9 74 9.43 10.3 24 32 1021.9 0 21.3 27.3 43.0 112.8 108.7 374.7
08/05 10:50 14.4 74 9.15 9.8 22 26 1022.1 0 20.7 26.9 42.1 110.5 105.7 364.0
08/05 10:40 14.2 76 9.28 10 26 30 1022.1 0 21.0 27.2 42.8 112.2 107.7 371.0
08/05 10:30 13.7 74 8.76 9.2 24 32 1022.1 0 19.9 26.5 40.9 107.2 101.4 348.8
08/05 10:20 13.8 76 9.06 9.6 22 28 1022.2 0 20.6 27.0 42.1 110.4 105.3 362.5
08/05 10:10 13.5 76 8.89 9.4 28 32 1022.2 0 20.2 26.8 41.5 108.9 103.4 355.9
08/05 10:00 13.4 77 8.95 9.5 22 39 1022.2 0 20.3 26.9 41.8 109.7 104.4 359.2
08/05 09:50 13.1 79 9.02 9.5 20 24 1022.2 0 20.5 27.1 42.3 110.9 105.7 363.9
08/05 09:40 12.8 79 8.85 9.3 24 28 1022.2 0 20.2 26.9 41.7 109.5 103.8 357.2
08/05 09:30 12.3 80 8.69 9 24 33 1022.3 0 19.8 26.8 41.3 108.4 102.3 351.9
08/05 09:20 11.9 82 8.69 8.9 32 35 1022.1 0 19.9 26.9 41.5 109.0 102.8 353.6
08/05 09:10 11.4 83 8.52 8.6 26 32 1022.2 0 19.5 26.8 41.1 107.8 101.2 347.7
08/05 09:00 11.7 85 8.89 9.3 20 35 1022.5 0 20.3 27.4 42.5 111.5 105.9 364.3
08/05 08:50 11.2 85 8.62 8.8 17 20 1022.4 0 19.7 27.1 41.6 109.2 102.8 353.5
08/05 08:40 10.9 85 8.46 8.5 22 24 1022.3 0 19.4 26.9 41.1 107.8 101.0 347.1
08/05 08:30 10.8 85 8.4 8.4 17 22 1022.2 0 19.3 26.8 40.9 107.3 100.3 344.6
08/05 08:20 10.7 86 8.45 8.5 15 20 1022.2 0 19.4 26.9 41.2 108.0 101.1 347.5
08/05 08:10 10.5 86 8.34 8.3 20 24 1022.1 0 19.2 26.8 40.8 107.0 99.9 343.0
08/05 08:00 10.4 86 8.29 8.2 15 24 1022.2 0 19.1 26.7 40.7 106.6 99.3 341.1
08/05 07:50 10.1 86 8.13 7.9 11 13 1022 0 18.8 26.5 40.1 105.2 97.5 334.6
08/05 07:40 10 87 8.18 7.9 13 15 1021.9 0 18.9 26.7 40.4 105.9 98.3 337.4
08/05 07:30 9.6 87 7.97 7.5 9 15 1021.7 0 18.4 26.4 39.7 104.0 95.9 329.0
08/05 07:20 9.4 87 7.87 7.3 7 9 1021.5 0 18.2 26.3 39.4 103.2 94.7 325.0
08/05 07:10 9.5 86 7.83 7.3 11 11 1021.4 0 18.1 26.2 39.2 102.6 94.1 322.6
08/05 07:00 9.4 86 7.78 7.2 15 20 1021.3 0 18.0 26.1 39.0 102.1 93.5 320.6
08/05 06:50 9.5 85 7.74 7.1 17 19 1021.4 0 17.9 26.0 38.8 101.6 92.8 318.3
08/05 06:40 9.7 84 7.75 7.1 13 15 1021.5 0 18.0 26.0 38.7 101.4 92.7 318.0
08/05 06:30 9.8 84 7.8 7.2 15 19 1021.6 0 18.1 26.1 38.9 101.9 93.3 320.0
08/05 06:20 9.8 84 7.8 7.2 17 17 1021.5 0 18.1 26.1 38.9 101.9 93.3 319.9
08/05 06:10 9.8 83 7.7 7.1 15 19 1021.4 0 17.8 25.9 38.5 100.8 91.9 315.2
08/05 05:58 10.2 81 7.71 7.1 15 17 1021.5 0 17.8 25.8 38.3 100.4 91.6 314.1
08/05 05:50 10.1 82 7.76 7.2 17 19 1021.4 0 18.0 25.9 38.6 101.0 92.4 316.8
08/05 05:40 9.8 81 7.52 6.7 11 13 1021.4 0 17.5 25.6 37.7 98.8 89.5 306.6
08/05 05:30 10 81 7.61 6.9 15 22 1021.4 0 17.6 25.7 38.0 99.5 90.5 310.1
08/05 05:20 10 80 7.52 6.7 13 15 1021.4 0 17.4 25.5 37.6 98.5 89.3 305.9
08/05 05:10 10 80 7.52 6.7 11 13 1021.4 0 17.4 25.5 37.6 98.5 89.3 305.9
08/05 05:00 10 81 7.61 6.9 13 19 1021.3 0 17.6 25.7 38.0 99.5 90.5 310.1
08/05 04:50 10 81 7.61 6.9 11 13 1021.3 0 17.6 25.7 38.0 99.5 90.5 310.1
08/05 04:40 10.1 80 7.57 6.8 13 15 1021.4 0 17.5 25.6 37.8 98.9 89.8 307.8
08/05 04:30 10 79 7.43 6.5 15 20 1021.2 0 17.3 25.4 37.3 97.5 88.0 301.6
08/05 04:20 10.2 79 7.52 6.7 11 13 1021.1 0 17.4 25.5 37.5 98.2 89.0 305.0
08/05 04:10 10.2 79 7.52 6.7 13 15 1021 0 17.4 25.5 37.5 98.2 89.0 305.0
08/05 04:00 10.3 78 7.47 6.6 13 20 1021 0 17.3 25.4 37.3 97.6 88.2 302.2
08/05 03:50 10.3 77 7.38 6.5 17 19 1020.9 0 17.1 25.2 36.9 96.6 87.0 298.0
08/05 03:40 10.3 77 7.38 6.5 13 15 1021 0 17.1 25.2 36.9 96.6 87.0 298.0
08/05 03:30 10.4 75 7.23 6.2 17 22 1021.2 0 16.8 24.9 36.3 94.9 84.9 290.7
08/05 03:20 10.3 75 7.18 6.1 15 17 1021.3 0 16.7 24.9 36.1 94.5 84.4 288.8
08/05 03:10 10.3 76 7.28 6.3 13 19 1021.3 0 16.9 25.1 36.5 95.5 85.7 293.5
08/05 03:00 10.2 76 7.23 6.2 17 24 1021.3 0 16.8 25.0 36.4 95.1 85.2 291.5
08/05 02:50 10.1 77 7.28 6.3 17 20 1021.4 0 16.9 25.1 36.6 95.8 85.9 294.2
08/05 02:40 10 78 7.33 6.3 13 15 1021.4 0 17.0 25.2 36.9 96.5 86.7 296.9
08/05 02:30 10.2 76 7.23 6.2 17 24 1021.5 0 16.8 25.0 36.4 95.2 85.2 291.6
08/05 02:20 10.3 75 7.18 6.1 19 24 1021.4 0 16.7 24.9 36.1 94.5 84.4 288.8
08/05 02:10 10.3 76 7.28 6.3 15 17 1021.5 0 16.9 25.1 36.5 95.6 85.7 293.5
08/05 02:00 10.3 76 7.28 6.3 17 24 1021.6 0 16.9 25.1 36.5 95.6 85.7 293.5
08/05 01:50 10.3 76 7.28 6.3 11 13 1021.7 0 16.9 25.1 36.5 95.6 85.7 293.6
08/05 01:40 10.3 76 7.28 6.3 13 17 1021.7 0 16.9 25.1 36.5 95.6 85.7 293.6
08/05 01:30 10.3 75 7.18 6.1 15 19 1021.9 0 16.7 24.9 36.1 94.5 84.4 289.0
08/05 01:20 10.3 75 7.18 6.1 13 15 1021.9 0 16.7 24.9 36.1 94.5 84.4 289.0
08/05 01:10 10.3 75 7.18 6.1 15 17 1022 0 16.7 24.9 36.2 94.5 84.4 289.0
08/05 01:00 10.3 75 7.18 6.1 13 20 1022.1 0 16.7 24.9 36.2 94.6 84.4 289.0
08/05 00:50 10.3 74 7.09 5.9 11 13 1022.2 0 16.5 24.8 35.8 93.6 83.3 284.9
08/05 00:40 10.2 74 7.04 5.8 11 13 1022.1 0 16.4 24.7 35.6 93.2 82.7 282.9
08/05 00:30 10.3 73 6.99 5.7 17 26 1022.2 0 16.3 24.6 35.4 92.5 81.9 280.3
08/05 00:20 10.3 72 6.9 5.5 17 22 1022.4 0 16.1 24.5 35.1 91.6 80.8 276.2
08/05 00:10 10.3 73 6.99 5.7 19 20 1022.6 0 16.3 24.6 35.4 92.6 82.0 280.4
08/05 00:00 10.2 72 6.85 5.4 13 20 1022.6 0 16.0 24.4 34.9 91.2 80.2 274.3
07/05 23:50 10.2 72 6.85 5.4 17 17 1022.6 0 16.0 24.4 34.9 91.2 80.2 274.3
07/05 23:40 10.2 72 6.85 5.4 11 13 1022.6 0 16.0 24.4 34.9 91.2 80.2 274.3
07/05 23:30 10.2 71 6.76 5.2 15 20 1022.6 0 15.8 24.3 34.6 90.3 79.1 270.2
07/05 23:20 10.2 71 6.76 5.2 19 24 1022.7 0 15.8 24.3 34.6 90.3 79.1 270.2
07/05 23:10 10.3 71 6.8 5.3 20 24 1022.7 0 15.9 24.3 34.7 90.6 79.5 271.7
07/05 23:00 10.1 72 6.81 5.3 19 26 1022.9 0 15.9 24.4 34.8 90.9 79.8 272.9
07/05 22:50 9.9 73 6.82 5.3 15 17 1022.8 0 16.0 24.5 34.9 91.3 80.2 274.0
07/05 22:40 9.9 73 6.82 5.3 17 19 1023 0 16.0 24.5 34.9 91.3 80.2 274.0
07/05 22:30 9.9 73 6.82 5.3 13 17 1023.2 0 16.0 24.5 34.9 91.3 80.2 274.1
07/05 22:20 9.7 74 6.82 5.3 13 15 1023.2 0 16.0 24.6 35.0 91.5 80.4 274.8
07/05 22:10 9.7 74 6.82 5.3 15 17 1023.2 0 16.0 24.6 35.0 91.5 80.4 274.8
07/05 22:00 9.4 75 6.79 5.2 9 13 1023.3 0 15.9 24.6 35.0 91.6 80.3 274.5
07/05 21:50 9.3 76 6.83 5.3 9 11 1023.3 0 16.0 24.7 35.3 92.1 81.0 276.7
07/05 21:40 9.3 76 6.83 5.3 9 11 1023.4 0 16.0 24.7 35.3 92.1 81.0 276.7
07/05 21:30 9.1 77 6.83 5.3 7 11 1023.6 0 16.0 24.7 35.4 92.4 81.2 277.4
07/05 21:20 9 77 6.79 5.2 9 9 1023.4 0 15.9 24.7 35.2 92.0 80.7 275.9
07/05 21:10 9 77 6.79 5.2 7 9 1023.2 0 15.9 24.7 35.2 92.0 80.7 275.8
07/05 21:00 9 77 6.79 5.2 9 11 1023.3 0 15.9 24.7 35.2 92.0 80.7 275.9
07/05 20:50 9 77 6.79 5.2 11 13 1023.4 0 15.9 24.7 35.2 92.0 80.7 275.9
07/05 20:40 8.7 78 6.75 5.1 9 9 1023.5 0 15.9 24.7 35.2 92.0 80.5 275.1
07/05 20:30 8.6 79 6.79 5.2 9 9 1023.5 0 15.9 24.8 35.4 92.5 81.2 277.3
07/05 20:20 8 81 6.7 4.9 9 9 1023.3 0 15.8 24.8 35.3 92.2 80.6 275.2
07/05 20:10 7.8 79 6.45 4.4 9 11 1023.3 0 15.2 24.5 34.4 89.8 77.4 264.2
07/05 20:00 7.9 77 6.33 4.1 9 13 1023.2 0 15.0 24.3 33.9 88.3 75.8 258.2

Last Refresh: 08-May-2026 12:07:36

Bureau of Meteorology